sensor_id;sensor_type;location;lat;lon;timestamp;P1;durP1;ratioP1;P2;durP2;ratioP2
5137;SDS011;53959;53.626;11.410;2022-12-04T00:01:47;82.53;;;28.67;;
5137;SDS011;53959;53.626;11.410;2022-12-04T00:04:13;76.53;;;29.20;;
5137;SDS011;53959;53.626;11.410;2022-12-04T00:06:38;72.80;;;28.93;;
5137;SDS011;53959;53.626;11.410;2022-12-04T00:09:04;78.13;;;29.20;;
5137;SDS011;53959;53.626;11.410;2022-12-04T00:11:30;73.13;;;28.80;;
5137;SDS011;53959;53.626;11.410;2022-12-04T00:13:57;79.57;;;30.33;;
5137;SDS011;53959;53.626;11.410;2022-12-04T00:16:24;86.07;;;29.63;;
5137;SDS011;53959;53.626;11.410;2022-12-04T00:18:53;83.03;;;30.60;;
5137;SDS011;53959;53.626;11.410;2022-12-04T00:21:19;81.07;;;29.37;;
5137;SDS011;53959;53.626;11.410;2022-12-04T00:23:46;82.53;;;29.10;;
5137;SDS011;53959;53.626;11.410;2022-12-04T00:26:13;83.70;;;29.90;;
5137;SDS011;53959;53.626;11.410;2022-12-04T00:28:40;91.57;;;31.10;;
5137;SDS011;53959;53.626;11.410;2022-12-04T00:31:08;79.87;;;29.40;;
5137;SDS011;53959;53.626;11.410;2022-12-04T00:33:36;80.57;;;27.93;;
5137;SDS011;53959;53.626;11.410;2022-12-04T00:36:03;76.87;;;28.83;;
5137;SDS011;53959;53.626;11.410;2022-12-04T00:38:31;84.83;;;30.73;;
5137;SDS011;53959;53.626;11.410;2022-12-04T00:40:57;84.77;;;29.80;;
5137;SDS011;53959;53.626;11.410;2022-12-04T00:43:24;89.47;;;31.10;;
5137;SDS011;53959;53.626;11.410;2022-12-04T00:45:50;85.53;;;29.77;;
5137;SDS011;53959;53.626;11.410;2022-12-04T00:48:16;81.13;;;29.03;;
5137;SDS011;53959;53.626;11.410;2022-12-04T00:50:41;83.17;;;30.63;;
5137;SDS011;53959;53.626;11.410;2022-12-04T00:53:07;79.60;;;29.10;;
5137;SDS011;53959;53.626;11.410;2022-12-04T00:55:32;84.70;;;30.27;;
5137;SDS011;53959;53.626;11.410;2022-12-04T00:57:58;62.13;;;24.07;;
5137;SDS011;53959;53.626;11.410;2022-12-04T01:00:23;71.20;;;29.20;;
5137;SDS011;53959;53.626;11.410;2022-12-04T01:02:49;77.07;;;31.97;;
5137;SDS011;53959;53.626;11.410;2022-12-04T01:05:14;76.00;;;28.03;;
5137;SDS011;53959;53.626;11.410;2022-12-04T01:07:40;74.23;;;28.90;;
5137;SDS011;53959;53.626;11.410;2022-12-04T01:10:06;80.80;;;28.30;;
5137;SDS011;53959;53.626;11.410;2022-12-04T01:12:35;70.70;;;28.57;;
5137;SDS011;53959;53.626;11.410;2022-12-04T01:15:00;71.40;;;30.20;;
5137;SDS011;53959;53.626;11.410;2022-12-04T01:17:26;78.20;;;30.60;;
5137;SDS011;53959;53.626;11.410;2022-12-04T01:19:52;79.93;;;30.90;;
5137;SDS011;53959;53.626;11.410;2022-12-04T01:22:17;76.97;;;29.47;;
5137;SDS011;53959;53.626;11.410;2022-12-04T01:24:43;84.70;;;31.80;;
5137;SDS011;53959;53.626;11.410;2022-12-04T01:27:08;74.30;;;28.67;;
5137;SDS011;53959;53.626;11.410;2022-12-04T01:29:34;90.60;;;33.30;;
5137;SDS011;53959;53.626;11.410;2022-12-04T01:31:59;85.17;;;32.20;;
5137;SDS011;53959;53.626;11.410;2022-12-04T01:34:25;76.73;;;28.80;;
5137;SDS011;53959;53.626;11.410;2022-12-04T01:36:51;90.77;;;34.70;;
5137;SDS011;53959;53.626;11.410;2022-12-04T01:39:17;78.23;;;31.40;;
5137;SDS011;53959;53.626;11.410;2022-12-04T01:41:42;80.50;;;31.23;;
5137;SDS011;53959;53.626;11.410;2022-12-04T01:44:13;82.43;;;32.20;;
5137;SDS011;53959;53.626;11.410;2022-12-04T01:46:43;85.00;;;31.47;;
5137;SDS011;53959;53.626;11.410;2022-12-04T01:49:28;98.27;;;30.67;;
5137;SDS011;53959;53.626;11.410;2022-12-04T01:51:59;80.17;;;32.10;;
5137;SDS011;53959;53.626;11.410;2022-12-04T01:54:31;68.80;;;26.23;;
5137;SDS011;53959;53.626;11.410;2022-12-04T01:57:07;96.60;;;31.87;;
5137;SDS011;53959;53.626;11.410;2022-12-04T01:59:42;79.20;;;30.80;;
5137;SDS011;53959;53.626;11.410;2022-12-04T02:02:26;97.30;;;33.70;;
5137;SDS011;53959;53.626;11.410;2022-12-04T02:04:55;78.60;;;30.60;;
5137;SDS011;53959;53.626;11.410;2022-12-04T02:07:21;92.83;;;33.33;;
5137;SDS011;53959;53.626;11.410;2022-12-04T02:09:47;91.83;;;32.30;;
5137;SDS011;53959;53.626;11.410;2022-12-04T02:12:19;84.23;;;32.03;;
5137;SDS011;53959;53.626;11.410;2022-12-04T02:15:16;82.60;;;30.80;;
5137;SDS011;53959;53.626;11.410;2022-12-04T02:18:09;79.90;;;30.87;;
5137;SDS011;53959;53.626;11.410;2022-12-04T02:21:33;87.27;;;30.33;;
5137;SDS011;53959;53.626;11.410;2022-12-04T02:26:10;75.10;;;29.43;;
5137;SDS011;53959;53.626;11.410;2022-12-04T02:31:30;73.77;;;27.70;;
5137;SDS011;53959;53.626;11.410;2022-12-04T02:34:07;99.17;;;33.57;;
5137;SDS011;53959;53.626;11.410;2022-12-04T02:36:40;87.83;;;28.90;;
5137;SDS011;53959;53.626;11.410;2022-12-04T02:39:21;84.30;;;30.03;;
5137;SDS011;53959;53.626;11.410;2022-12-04T02:42:19;86.50;;;30.47;;
5137;SDS011;53959;53.626;11.410;2022-12-04T02:44:52;67.33;;;27.67;;
5137;SDS011;53959;53.626;11.410;2022-12-04T02:47:22;72.77;;;29.20;;
5137;SDS011;53959;53.626;11.410;2022-12-04T02:49:51;67.63;;;26.67;;
5137;SDS011;53959;53.626;11.410;2022-12-04T02:52:33;73.57;;;29.57;;
5137;SDS011;53959;53.626;11.410;2022-12-04T02:55:04;80.03;;;27.83;;
5137;SDS011;53959;53.626;11.410;2022-12-04T02:57:34;77.90;;;30.57;;
5137;SDS011;53959;53.626;11.410;2022-12-04T03:00:03;79.60;;;29.73;;
5137;SDS011;53959;53.626;11.410;2022-12-04T03:02:33;80.30;;;31.53;;
5137;SDS011;53959;53.626;11.410;2022-12-04T03:05:04;73.10;;;29.90;;
5137;SDS011;53959;53.626;11.410;2022-12-04T03:08:09;75.37;;;26.73;;
5137;SDS011;53959;53.626;11.410;2022-12-04T03:10:31;72.90;;;28.93;;
5137;SDS011;53959;53.626;11.410;2022-12-04T03:13:02;78.47;;;29.40;;
5137;SDS011;53959;53.626;11.410;2022-12-04T03:15:45;77.53;;;28.37;;
5137;SDS011;53959;53.626;11.410;2022-12-04T03:18:21;74.03;;;27.40;;
5137;SDS011;53959;53.626;11.410;2022-12-04T03:20:54;72.27;;;26.63;;
5137;SDS011;53959;53.626;11.410;2022-12-04T03:23:27;79.87;;;30.53;;
5137;SDS011;53959;53.626;11.410;2022-12-04T03:28:45;91.57;;;31.90;;
5137;SDS011;53959;53.626;11.410;2022-12-04T03:31:22;87.70;;;31.80;;
5137;SDS011;53959;53.626;11.410;2022-12-04T03:33:55;85.43;;;30.90;;
5137;SDS011;53959;53.626;11.410;2022-12-04T03:36:25;85.00;;;30.60;;
5137;SDS011;53959;53.626;11.410;2022-12-04T03:38:57;93.17;;;33.97;;
5137;SDS011;53959;53.626;11.410;2022-12-04T03:41:31;87.43;;;31.93;;
5137;SDS011;53959;53.626;11.410;2022-12-04T03:44:45;83.47;;;30.30;;
5137;SDS011;53959;53.626;11.410;2022-12-04T03:47:07;88.83;;;30.13;;
5137;SDS011;53959;53.626;11.410;2022-12-04T03:49:43;96.10;;;30.90;;
5137;SDS011;53959;53.626;11.410;2022-12-04T03:55:16;76.90;;;28.20;;
5137;SDS011;53959;53.626;11.410;2022-12-04T03:57:48;97.87;;;32.70;;
5137;SDS011;53959;53.626;11.410;2022-12-04T04:00:18;96.20;;;33.80;;
5137;SDS011;53959;53.626;11.410;2022-12-04T04:02:56;93.83;;;34.70;;
5137;SDS011;53959;53.626;11.410;2022-12-04T04:05:51;91.23;;;32.20;;
5137;SDS011;53959;53.626;11.410;2022-12-04T04:08:21;105.27;;;35.00;;
5137;SDS011;53959;53.626;11.410;2022-12-04T04:10:51;108.17;;;34.53;;
5137;SDS011;53959;53.626;11.410;2022-12-04T04:13:21;107.00;;;35.17;;
5137;SDS011;53959;53.626;11.410;2022-12-04T04:16:10;98.63;;;35.50;;
5137;SDS011;53959;53.626;11.410;2022-12-04T04:18:56;104.23;;;34.63;;
5137;SDS011;53959;53.626;11.410;2022-12-04T04:21:42;106.43;;;33.37;;
5137;SDS011;53959;53.626;11.410;2022-12-04T04:24:36;106.87;;;32.50;;
5137;SDS011;53959;53.626;11.410;2022-12-04T04:27:05;114.93;;;38.10;;
5137;SDS011;53959;53.626;11.410;2022-12-04T04:29:31;114.30;;;35.13;;
5137;SDS011;53959;53.626;11.410;2022-12-04T04:31:59;119.73;;;37.10;;
5137;SDS011;53959;53.626;11.410;2022-12-04T04:37:00;127.30;;;39.00;;
5137;SDS011;53959;53.626;11.410;2022-12-04T04:39:57;116.93;;;36.53;;
5137;SDS011;53959;53.626;11.410;2022-12-04T04:42:42;105.17;;;34.37;;
5137;SDS011;53959;53.626;11.410;2022-12-04T04:45:30;123.50;;;37.40;;
5137;SDS011;53959;53.626;11.410;2022-12-04T04:48:17;113.23;;;37.07;;
5137;SDS011;53959;53.626;11.410;2022-12-04T04:50:51;123.33;;;37.57;;
5137;SDS011;53959;53.626;11.410;2022-12-04T04:53:19;127.97;;;36.77;;
5137;SDS011;53959;53.626;11.410;2022-12-04T04:55:50;100.80;;;35.80;;
5137;SDS011;53959;53.626;11.410;2022-12-04T04:58:17;118.67;;;38.03;;
5137;SDS011;53959;53.626;11.410;2022-12-04T05:00:46;102.23;;;35.83;;
5137;SDS011;53959;53.626;11.410;2022-12-04T05:03:25;107.43;;;36.83;;
5137;SDS011;53959;53.626;11.410;2022-12-04T05:05:51;127.20;;;39.47;;
5137;SDS011;53959;53.626;11.410;2022-12-04T05:08:17;121.77;;;38.13;;
5137;SDS011;53959;53.626;11.410;2022-12-04T05:10:42;110.83;;;34.90;;
5137;SDS011;53959;53.626;11.410;2022-12-04T05:13:10;123.57;;;39.60;;
5137;SDS011;53959;53.626;11.410;2022-12-04T05:15:36;105.30;;;38.23;;
5137;SDS011;53959;53.626;11.410;2022-12-04T05:18:01;104.43;;;34.90;;
5137;SDS011;53959;53.626;11.410;2022-12-04T05:20:27;114.53;;;34.47;;
5137;SDS011;53959;53.626;11.410;2022-12-04T05:22:53;118.40;;;37.73;;
5137;SDS011;53959;53.626;11.410;2022-12-04T05:25:18;126.27;;;41.67;;
5137;SDS011;53959;53.626;11.410;2022-12-04T05:27:44;103.63;;;36.33;;
5137;SDS011;53959;53.626;11.410;2022-12-04T05:30:10;112.93;;;37.30;;
5137;SDS011;53959;53.626;11.410;2022-12-04T05:32:36;108.30;;;36.03;;
5137;SDS011;53959;53.626;11.410;2022-12-04T05:35:01;108.57;;;37.70;;
5137;SDS011;53959;53.626;11.410;2022-12-04T05:37:27;112.27;;;36.07;;
5137;SDS011;53959;53.626;11.410;2022-12-04T05:39:52;110.60;;;37.97;;
5137;SDS011;53959;53.626;11.410;2022-12-04T05:42:18;101.67;;;37.57;;
5137;SDS011;53959;53.626;11.410;2022-12-04T05:44:44;107.87;;;34.93;;
5137;SDS011;53959;53.626;11.410;2022-12-04T05:47:10;129.03;;;38.40;;
5137;SDS011;53959;53.626;11.410;2022-12-04T05:49:35;110.40;;;38.00;;
5137;SDS011;53959;53.626;11.410;2022-12-04T05:52:02;117.20;;;36.97;;
5137;SDS011;53959;53.626;11.410;2022-12-04T05:54:29;124.80;;;37.87;;
5137;SDS011;53959;53.626;11.410;2022-12-04T05:56:55;98.07;;;32.33;;
5137;SDS011;53959;53.626;11.410;2022-12-04T05:59:20;121.50;;;38.23;;
5137;SDS011;53959;53.626;11.410;2022-12-04T06:01:46;112.13;;;34.17;;
5137;SDS011;53959;53.626;11.410;2022-12-04T06:04:11;123.93;;;38.90;;
5137;SDS011;53959;53.626;11.410;2022-12-04T06:06:37;108.63;;;34.50;;
5137;SDS011;53959;53.626;11.410;2022-12-04T06:09:03;112.53;;;38.43;;
5137;SDS011;53959;53.626;11.410;2022-12-04T06:11:31;110.87;;;36.90;;
5137;SDS011;53959;53.626;11.410;2022-12-04T06:13:59;101.57;;;34.27;;
5137;SDS011;53959;53.626;11.410;2022-12-04T06:16:27;104.13;;;35.27;;
5137;SDS011;53959;53.626;11.410;2022-12-04T06:18:58;104.10;;;34.70;;
5137;SDS011;53959;53.626;11.410;2022-12-04T06:21:27;99.03;;;35.93;;
5137;SDS011;53959;53.626;11.410;2022-12-04T06:23:54;112.43;;;39.27;;
5137;SDS011;53959;53.626;11.410;2022-12-04T06:26:20;104.53;;;36.53;;
5137;SDS011;53959;53.626;11.410;2022-12-04T06:28:46;105.90;;;40.27;;
5137;SDS011;53959;53.626;11.410;2022-12-04T06:31:12;102.23;;;36.03;;
5137;SDS011;53959;53.626;11.410;2022-12-04T06:33:40;93.97;;;35.83;;
5137;SDS011;53959;53.626;11.410;2022-12-04T06:36:07;117.60;;;38.57;;
5137;SDS011;53959;53.626;11.410;2022-12-04T06:38:35;87.87;;;32.07;;
5137;SDS011;53959;53.626;11.410;2022-12-04T06:41:04;97.87;;;36.07;;
5137;SDS011;53959;53.626;11.410;2022-12-04T06:43:31;104.03;;;35.73;;
5137;SDS011;53959;53.626;11.410;2022-12-04T06:48:31;91.67;;;34.77;;
5137;SDS011;53959;53.626;11.410;2022-12-04T06:50:59;99.60;;;36.00;;
5137;SDS011;53959;53.626;11.410;2022-12-04T06:53:36;87.60;;;30.90;;
5137;SDS011;53959;53.626;11.410;2022-12-04T06:56:03;100.80;;;37.20;;
5137;SDS011;53959;53.626;11.410;2022-12-04T06:58:31;94.07;;;35.70;;
5137;SDS011;53959;53.626;11.410;2022-12-04T07:00:57;104.93;;;37.70;;
5137;SDS011;53959;53.626;11.410;2022-12-04T07:03:23;100.87;;;33.57;;
5137;SDS011;53959;53.626;11.410;2022-12-04T07:05:49;99.40;;;34.30;;
5137;SDS011;53959;53.626;11.410;2022-12-04T07:08:15;92.33;;;33.70;;
5137;SDS011;53959;53.626;11.410;2022-12-04T07:10:41;94.17;;;34.27;;
5137;SDS011;53959;53.626;11.410;2022-12-04T07:13:07;91.43;;;34.00;;
5137;SDS011;53959;53.626;11.410;2022-12-04T07:15:34;87.10;;;34.63;;
5137;SDS011;53959;53.626;11.410;2022-12-04T07:18:01;103.03;;;33.10;;
5137;SDS011;53959;53.626;11.410;2022-12-04T07:20:27;96.60;;;35.20;;
5137;SDS011;53959;53.626;11.410;2022-12-04T07:22:53;97.27;;;35.10;;
5137;SDS011;53959;53.626;11.410;2022-12-04T07:25:18;98.50;;;37.30;;
5137;SDS011;53959;53.626;11.410;2022-12-04T07:27:44;100.47;;;35.60;;
5137;SDS011;53959;53.626;11.410;2022-12-04T07:30:10;102.70;;;35.77;;
5137;SDS011;53959;53.626;11.410;2022-12-04T07:32:36;91.47;;;32.13;;
5137;SDS011;53959;53.626;11.410;2022-12-04T07:35:02;94.30;;;35.30;;
5137;SDS011;53959;53.626;11.410;2022-12-04T07:37:28;93.77;;;35.60;;
5137;SDS011;53959;53.626;11.410;2022-12-04T07:39:54;103.47;;;35.10;;
5137;SDS011;53959;53.626;11.410;2022-12-04T07:42:20;86.10;;;33.03;;
5137;SDS011;53959;53.626;11.410;2022-12-04T07:44:45;97.30;;;32.93;;
5137;SDS011;53959;53.626;11.410;2022-12-04T07:47:11;98.37;;;35.40;;
5137;SDS011;53959;53.626;11.410;2022-12-04T07:49:37;96.97;;;34.70;;
5137;SDS011;53959;53.626;11.410;2022-12-04T07:52:02;87.97;;;35.00;;
5137;SDS011;53959;53.626;11.410;2022-12-04T07:54:28;96.93;;;34.40;;
5137;SDS011;53959;53.626;11.410;2022-12-04T07:56:54;84.13;;;30.60;;
5137;SDS011;53959;53.626;11.410;2022-12-04T07:59:19;106.47;;;34.43;;
5137;SDS011;53959;53.626;11.410;2022-12-04T08:01:45;95.07;;;34.90;;
5137;SDS011;53959;53.626;11.410;2022-12-04T08:04:10;96.30;;;34.60;;
5137;SDS011;53959;53.626;11.410;2022-12-04T08:06:36;100.40;;;37.60;;
5137;SDS011;53959;53.626;11.410;2022-12-04T08:09:02;85.67;;;34.43;;
5137;SDS011;53959;53.626;11.410;2022-12-04T08:11:29;93.40;;;34.67;;
5137;SDS011;53959;53.626;11.410;2022-12-04T08:13:55;93.40;;;36.17;;
5137;SDS011;53959;53.626;11.410;2022-12-04T08:16:22;102.47;;;36.90;;
5137;SDS011;53959;53.626;11.410;2022-12-04T08:18:48;97.33;;;36.57;;
5137;SDS011;53959;53.626;11.410;2022-12-04T08:21:15;92.93;;;32.13;;
5137;SDS011;53959;53.626;11.410;2022-12-04T08:23:44;99.10;;;35.83;;
5137;SDS011;53959;53.626;11.410;2022-12-04T08:26:10;88.53;;;36.93;;
5137;SDS011;53959;53.626;11.410;2022-12-04T08:28:36;94.20;;;35.87;;
5137;SDS011;53959;53.626;11.410;2022-12-04T08:31:03;103.77;;;36.53;;
5137;SDS011;53959;53.626;11.410;2022-12-04T08:33:30;101.73;;;35.17;;
5137;SDS011;53959;53.626;11.410;2022-12-04T08:35:56;99.53;;;37.97;;
5137;SDS011;53959;53.626;11.410;2022-12-04T08:38:22;97.17;;;37.77;;
5137;SDS011;53959;53.626;11.410;2022-12-04T08:40:47;110.03;;;38.93;;
5137;SDS011;53959;53.626;11.410;2022-12-04T08:43:13;95.13;;;36.13;;
5137;SDS011;53959;53.626;11.410;2022-12-04T08:45:39;99.17;;;34.30;;
5137;SDS011;53959;53.626;11.410;2022-12-04T08:48:04;102.57;;;37.77;;
5137;SDS011;53959;53.626;11.410;2022-12-04T08:50:30;90.10;;;35.23;;
5137;SDS011;53959;53.626;11.410;2022-12-04T08:52:56;86.27;;;36.07;;
5137;SDS011;53959;53.626;11.410;2022-12-04T08:55:21;101.93;;;37.83;;
5137;SDS011;53959;53.626;11.410;2022-12-04T08:57:47;88.03;;;34.40;;
5137;SDS011;53959;53.626;11.410;2022-12-04T09:00:15;92.67;;;35.27;;
5137;SDS011;53959;53.626;11.410;2022-12-04T09:02:40;92.07;;;35.70;;
5137;SDS011;53959;53.626;11.410;2022-12-04T09:05:06;92.77;;;34.40;;
5137;SDS011;53959;53.626;11.410;2022-12-04T09:07:32;102.20;;;37.40;;
5137;SDS011;53959;53.626;11.410;2022-12-04T09:09:57;83.47;;;32.87;;
5137;SDS011;53959;53.626;11.410;2022-12-04T09:12:23;90.20;;;32.70;;
5137;SDS011;53959;53.626;11.410;2022-12-04T09:14:48;106.77;;;35.80;;
5137;SDS011;53959;53.626;11.410;2022-12-04T09:17:14;102.20;;;38.80;;
5137;SDS011;53959;53.626;11.410;2022-12-04T09:19:39;96.33;;;37.10;;
5137;SDS011;53959;53.626;11.410;2022-12-04T09:22:05;90.93;;;35.57;;
5137;SDS011;53959;53.626;11.410;2022-12-04T09:24:30;98.73;;;36.00;;
5137;SDS011;53959;53.626;11.410;2022-12-04T09:26:56;93.47;;;34.60;;
5137;SDS011;53959;53.626;11.410;2022-12-04T09:29:21;100.83;;;35.80;;
5137;SDS011;53959;53.626;11.410;2022-12-04T09:31:47;92.50;;;36.20;;
5137;SDS011;53959;53.626;11.410;2022-12-04T09:34:12;84.77;;;32.13;;
5137;SDS011;53959;53.626;11.410;2022-12-04T09:36:38;91.40;;;36.73;;
5137;SDS011;53959;53.626;11.410;2022-12-04T09:39:03;94.13;;;35.57;;
5137;SDS011;53959;53.626;11.410;2022-12-04T09:44:02;89.77;;;35.57;;
5137;SDS011;53959;53.626;11.410;2022-12-04T09:46:34;99.93;;;37.20;;
5137;SDS011;53959;53.626;11.410;2022-12-04T09:49:04;106.77;;;40.13;;
5137;SDS011;53959;53.626;11.410;2022-12-04T09:51:35;97.77;;;36.43;;
5137;SDS011;53959;53.626;11.410;2022-12-04T09:54:07;78.33;;;33.27;;
5137;SDS011;53959;53.626;11.410;2022-12-04T09:56:38;92.20;;;35.87;;
5137;SDS011;53959;53.626;11.410;2022-12-04T09:59:05;90.50;;;36.57;;
5137;SDS011;53959;53.626;11.410;2022-12-04T10:01:47;96.17;;;37.43;;
5137;SDS011;53959;53.626;11.410;2022-12-04T10:04:37;97.07;;;35.40;;
5137;SDS011;53959;53.626;11.410;2022-12-04T10:07:15;88.47;;;35.40;;
5137;SDS011;53959;53.626;11.410;2022-12-04T10:09:53;89.33;;;33.40;;
5137;SDS011;53959;53.626;11.410;2022-12-04T10:12:53;83.00;;;32.03;;
5137;SDS011;53959;53.626;11.410;2022-12-04T10:15:45;94.70;;;35.17;;
5137;SDS011;53959;53.626;11.410;2022-12-04T10:20:55;77.20;;;34.00;;
5137;SDS011;53959;53.626;11.410;2022-12-04T10:26:22;86.40;;;36.53;;
5137;SDS011;53959;53.626;11.410;2022-12-04T10:29:01;83.93;;;34.17;;
5137;SDS011;53959;53.626;11.410;2022-12-04T10:31:30;81.63;;;31.97;;
5137;SDS011;53959;53.626;11.410;2022-12-04T10:34:01;85.43;;;35.60;;
5137;SDS011;53959;53.626;11.410;2022-12-04T10:36:31;97.70;;;33.00;;
5137;SDS011;53959;53.626;11.410;2022-12-04T10:38:59;84.67;;;35.13;;
5137;SDS011;53959;53.626;11.410;2022-12-04T10:41:34;81.00;;;29.87;;
5137;SDS011;53959;53.626;11.410;2022-12-04T10:44:02;73.20;;;31.10;;
5137;SDS011;53959;53.626;11.410;2022-12-04T10:46:29;88.33;;;33.03;;
5137;SDS011;53959;53.626;11.410;2022-12-04T10:51:56;85.47;;;32.57;;
5137;SDS011;53959;53.626;11.410;2022-12-04T10:54:35;85.20;;;35.67;;
5137;SDS011;53959;53.626;11.410;2022-12-04T10:57:05;93.67;;;35.80;;
5137;SDS011;53959;53.626;11.410;2022-12-04T10:59:33;81.73;;;36.17;;
5137;SDS011;53959;53.626;11.410;2022-12-04T11:02:15;77.80;;;33.80;;
5137;SDS011;53959;53.626;11.410;2022-12-04T11:04:53;89.43;;;34.03;;
5137;SDS011;53959;53.626;11.410;2022-12-04T11:07:36;84.80;;;34.80;;
5137;SDS011;53959;53.626;11.410;2022-12-04T11:10:32;84.00;;;33.80;;
5137;SDS011;53959;53.626;11.410;2022-12-04T11:13:06;85.00;;;34.23;;
5137;SDS011;53959;53.626;11.410;2022-12-04T11:15:35;86.07;;;36.20;;
5137;SDS011;53959;53.626;11.410;2022-12-04T11:18:20;78.70;;;32.83;;
5137;SDS011;53959;53.626;11.410;2022-12-04T11:20:51;87.37;;;36.23;;
5137;SDS011;53959;53.626;11.410;2022-12-04T11:23:20;80.23;;;31.60;;
5137;SDS011;53959;53.626;11.410;2022-12-04T11:25:47;89.57;;;36.27;;
5137;SDS011;53959;53.626;11.410;2022-12-04T11:28:17;95.77;;;34.73;;
5137;SDS011;53959;53.626;11.410;2022-12-04T11:30:48;99.13;;;40.60;;
5137;SDS011;53959;53.626;11.410;2022-12-04T11:33:17;96.10;;;35.97;;
5137;SDS011;53959;53.626;11.410;2022-12-04T11:35:53;92.33;;;35.67;;
5137;SDS011;53959;53.626;11.410;2022-12-04T11:38:22;86.63;;;34.13;;
5137;SDS011;53959;53.626;11.410;2022-12-04T11:40:51;96.80;;;35.60;;
5137;SDS011;53959;53.626;11.410;2022-12-04T11:43:19;93.83;;;36.73;;
5137;SDS011;53959;53.626;11.410;2022-12-04T11:48:20;96.27;;;36.23;;
5137;SDS011;53959;53.626;11.410;2022-12-04T11:50:55;99.10;;;37.57;;
5137;SDS011;53959;53.626;11.410;2022-12-04T11:59:17;92.90;;;38.60;;
5137;SDS011;53959;53.626;11.410;2022-12-04T12:19:40;86.27;;;35.13;;
5137;SDS011;53959;53.626;11.410;2022-12-04T12:22:23;90.03;;;32.00;;
5137;SDS011;53959;53.626;11.410;2022-12-04T12:30:24;85.33;;;34.67;;
5137;SDS011;53959;53.626;11.410;2022-12-04T12:32:57;102.53;;;35.67;;
5137;SDS011;53959;53.626;11.410;2022-12-04T12:38:24;102.23;;;38.97;;
5137;SDS011;53959;53.626;11.410;2022-12-04T12:41:03;111.90;;;39.60;;
5137;SDS011;53959;53.626;11.410;2022-12-04T12:43:34;115.43;;;38.70;;
5137;SDS011;53959;53.626;11.410;2022-12-04T12:54:14;92.93;;;35.70;;
5137;SDS011;53959;53.626;11.410;2022-12-04T12:59:36;93.50;;;34.63;;
5137;SDS011;53959;53.626;11.410;2022-12-04T13:05:06;88.33;;;32.73;;
5137;SDS011;53959;53.626;11.410;2022-12-04T13:07:41;96.33;;;36.10;;
5137;SDS011;53959;53.626;11.410;2022-12-04T13:10:34;102.90;;;36.20;;
5137;SDS011;53959;53.626;11.410;2022-12-04T13:13:13;92.77;;;32.47;;
5137;SDS011;53959;53.626;11.410;2022-12-04T13:18:57;95.30;;;33.20;;
5137;SDS011;53959;53.626;11.410;2022-12-04T13:29:56;107.37;;;31.30;;
5137;SDS011;53959;53.626;11.410;2022-12-04T13:41:18;89.90;;;31.93;;
5137;SDS011;53959;53.626;11.410;2022-12-04T13:43:46;91.53;;;33.13;;
5137;SDS011;53959;53.626;11.410;2022-12-04T13:46:24;102.80;;;33.57;;
5137;SDS011;53959;53.626;11.410;2022-12-04T13:48:51;87.83;;;33.90;;
5137;SDS011;53959;53.626;11.410;2022-12-04T13:56:41;89.83;;;32.17;;
5137;SDS011;53959;53.626;11.410;2022-12-04T14:01:54;82.13;;;31.60;;
5137;SDS011;53959;53.626;11.410;2022-12-04T14:07:01;74.40;;;29.53;;
5137;SDS011;53959;53.626;11.410;2022-12-04T14:09:29;67.47;;;28.40;;
5137;SDS011;53959;53.626;11.410;2022-12-04T14:12:09;68.93;;;27.20;;
5137;SDS011;53959;53.626;11.410;2022-12-04T14:19:56;66.13;;;28.50;;
5137;SDS011;53959;53.626;11.410;2022-12-04T14:33:21;64.47;;;25.10;;
5137;SDS011;53959;53.626;11.410;2022-12-04T14:35:53;60.13;;;25.47;;
5137;SDS011;53959;53.626;11.410;2022-12-04T14:38:27;67.43;;;27.27;;
5137;SDS011;53959;53.626;11.410;2022-12-04T14:40:54;73.03;;;26.47;;
5137;SDS011;53959;53.626;11.410;2022-12-04T14:43:23;64.10;;;24.37;;
5137;SDS011;53959;53.626;11.410;2022-12-04T14:45:56;60.53;;;23.20;;
5137;SDS011;53959;53.626;11.410;2022-12-04T14:48:31;66.93;;;24.43;;
5137;SDS011;53959;53.626;11.410;2022-12-04T14:51:05;50.20;;;24.97;;
5137;SDS011;53959;53.626;11.410;2022-12-04T14:53:39;61.10;;;24.80;;
5137;SDS011;53959;53.626;11.410;2022-12-04T14:59:14;63.90;;;25.00;;
5137;SDS011;53959;53.626;11.410;2022-12-04T15:01:41;64.70;;;25.13;;
5137;SDS011;53959;53.626;11.410;2022-12-04T15:04:12;56.93;;;24.20;;
5137;SDS011;53959;53.626;11.410;2022-12-04T15:06:46;51.50;;;23.30;;
5137;SDS011;53959;53.626;11.410;2022-12-04T15:09:18;49.53;;;24.40;;
5137;SDS011;53959;53.626;11.410;2022-12-04T15:15:21;53.30;;;21.50;;
5137;SDS011;53959;53.626;11.410;2022-12-04T15:20:23;46.20;;;20.50;;
5137;SDS011;53959;53.626;11.410;2022-12-04T15:22:49;46.80;;;22.40;;
5137;SDS011;53959;53.626;11.410;2022-12-04T15:25:18;50.30;;;25.20;;
5137;SDS011;53959;53.626;11.410;2022-12-04T15:27:47;58.17;;;21.60;;
5137;SDS011;53959;53.626;11.410;2022-12-04T15:30:16;40.93;;;19.83;;
5137;SDS011;53959;53.626;11.410;2022-12-04T15:32:45;49.80;;;23.17;;
5137;SDS011;53959;53.626;11.410;2022-12-04T15:35:18;59.43;;;23.77;;
5137;SDS011;53959;53.626;11.410;2022-12-04T15:37:47;43.83;;;22.23;;
5137;SDS011;53959;53.626;11.410;2022-12-04T15:40:21;51.87;;;23.97;;
5137;SDS011;53959;53.626;11.410;2022-12-04T15:42:51;42.90;;;20.77;;
5137;SDS011;53959;53.626;11.410;2022-12-04T15:52:45;46.10;;;23.23;;
5137;SDS011;53959;53.626;11.410;2022-12-04T15:55:20;48.23;;;22.60;;
5137;SDS011;53959;53.626;11.410;2022-12-04T15:57:51;44.00;;;23.47;;
5137;SDS011;53959;53.626;11.410;2022-12-04T16:02:58;47.33;;;23.20;;
5137;SDS011;53959;53.626;11.410;2022-12-04T16:07:53;49.83;;;24.13;;
5137;SDS011;53959;53.626;11.410;2022-12-04T16:10:42;48.67;;;22.43;;
5137;SDS011;53959;53.626;11.410;2022-12-04T16:13:25;42.87;;;21.03;;
5137;SDS011;53959;53.626;11.410;2022-12-04T16:15:52;44.93;;;22.97;;
5137;SDS011;53959;53.626;11.410;2022-12-04T16:18:21;53.23;;;24.97;;
5137;SDS011;53959;53.626;11.410;2022-12-04T16:20:46;51.27;;;24.10;;
5137;SDS011;53959;53.626;11.410;2022-12-04T16:23:12;53.83;;;25.40;;
5137;SDS011;53959;53.626;11.410;2022-12-04T16:25:37;47.00;;;24.60;;
5137;SDS011;53959;53.626;11.410;2022-12-04T16:28:03;47.83;;;22.70;;
5137;SDS011;53959;53.626;11.410;2022-12-04T16:30:30;48.03;;;24.43;;
5137;SDS011;53959;53.626;11.410;2022-12-04T16:32:57;51.20;;;25.43;;
5137;SDS011;53959;53.626;11.410;2022-12-04T16:35:22;51.00;;;22.87;;
5137;SDS011;53959;53.626;11.410;2022-12-04T16:37:48;48.07;;;23.73;;
5137;SDS011;53959;53.626;11.410;2022-12-04T16:40:14;49.73;;;23.87;;
5137;SDS011;53959;53.626;11.410;2022-12-04T16:42:40;45.93;;;24.20;;
5137;SDS011;53959;53.626;11.410;2022-12-04T16:45:16;42.80;;;21.37;;
5137;SDS011;53959;53.626;11.410;2022-12-04T16:47:51;47.07;;;25.43;;
5137;SDS011;53959;53.626;11.410;2022-12-04T16:50:17;44.03;;;21.20;;
5137;SDS011;53959;53.626;11.410;2022-12-04T16:52:42;44.63;;;22.23;;
5137;SDS011;53959;53.626;11.410;2022-12-04T16:55:12;52.27;;;24.50;;
5137;SDS011;53959;53.626;11.410;2022-12-04T16:57:42;49.23;;;26.03;;
5137;SDS011;53959;53.626;11.410;2022-12-04T17:00:09;52.93;;;24.80;;
5137;SDS011;53959;53.626;11.410;2022-12-04T17:02:38;54.93;;;24.90;;